createdAt,value
2018-05-27T00:02:23.515Z,81.76
2018-05-27T00:04:49.327Z,82.79
2018-05-27T00:07:15.134Z,82.80
2018-05-27T00:09:41.027Z,82.59
2018-05-27T00:12:06.831Z,82.35
2018-05-27T00:14:32.649Z,82.66
2018-05-27T00:16:58.474Z,82.30
2018-05-27T00:19:24.281Z,82.12
2018-05-27T00:21:50.080Z,82.29
2018-05-27T00:24:15.890Z,82.34
2018-05-27T00:26:41.682Z,82.23
2018-05-27T00:29:07.473Z,82.43
2018-05-27T00:31:33.630Z,82.80
2018-05-27T00:33:59.429Z,83.07
2018-05-27T00:36:25.219Z,82.80
2018-05-27T00:38:51.035Z,82.77
2018-05-27T00:41:16.833Z,83.42
2018-05-27T00:43:42.655Z,83.87
2018-05-27T00:46:08.477Z,83.87
2018-05-27T00:48:34.313Z,84.13
2018-05-27T00:51:00.100Z,85.11
2018-05-27T00:53:38.343Z,84.75
2018-05-27T00:56:04.157Z,85.28
2018-05-27T00:58:30.011Z,85.81
2018-05-27T01:00:55.830Z,85.74
2018-05-27T01:03:21.630Z,85.86
2018-05-27T01:05:47.473Z,86.11
2018-05-27T01:08:13.281Z,86.32
2018-05-27T01:10:39.082Z,86.33
2018-05-27T01:13:04.867Z,86.48
2018-05-27T01:15:30.715Z,87.04
2018-05-27T01:17:56.515Z,87.30
2018-05-27T01:20:22.349Z,87.76
2018-05-27T01:22:48.178Z,87.19
2018-05-27T01:25:13.994Z,87.21
2018-05-27T01:27:39.817Z,87.75
2018-05-27T01:30:05.661Z,87.67
2018-05-27T01:32:31.500Z,87.88
2018-05-27T01:34:57.365Z,88.29
2018-05-27T01:37:23.154Z,88.51
2018-05-27T01:39:48.954Z,89.24
2018-05-27T01:42:14.764Z,90.15
2018-05-27T01:44:40.572Z,90.10
2018-05-27T01:47:06.361Z,89.63
2018-05-27T01:49:32.161Z,89.99
2018-05-27T01:51:57.962Z,90.58
2018-05-27T01:54:23.749Z,90.21
2018-05-27T01:56:49.533Z,92.22
2018-05-27T01:59:15.436Z,92.55
2018-05-27T02:01:41.257Z,92.90
2018-05-27T02:04:07.065Z,93.01
2018-05-27T02:06:32.877Z,93.53
2018-05-27T02:08:58.684Z,93.90
2018-05-27T02:11:24.500Z,94.81
2018-05-27T02:13:50.297Z,95.72
2018-05-27T02:16:16.081Z,95.94
2018-05-27T02:18:42.242Z,95.56
2018-05-27T02:21:08.029Z,95.62
2018-05-27T02:23:33.825Z,96.52
2018-05-27T02:25:59.617Z,96.82
2018-05-27T02:28:25.445Z,96.35
2018-05-27T02:30:51.239Z,96.52
2018-05-27T02:33:17.022Z,96.64
2018-05-27T02:35:42.855Z,96.88
2018-05-27T02:38:08.686Z,96.79
2018-05-27T02:40:34.489Z,96.57
2018-05-27T02:43:00.304Z,97.37
2018-05-27T02:45:26.105Z,97.29
2018-05-27T02:47:51.906Z,97.39
2018-05-27T02:50:17.747Z,97.98
2018-05-27T02:52:43.546Z,97.96
2018-05-27T02:55:09.408Z,98.44
2018-05-27T02:57:35.192Z,98.69
2018-05-27T03:00:00.997Z,98.40
2018-05-27T03:02:26.785Z,98.38
2018-05-27T03:04:52.584Z,98.18
2018-05-27T03:07:18.390Z,98.11
2018-05-27T03:09:44.190Z,98.00
2018-05-27T03:12:09.974Z,98.04
2018-05-27T03:14:35.787Z,98.42
2018-05-27T03:17:01.594Z,99.24
2018-05-27T03:19:27.392Z,99.37
2018-05-27T03:21:53.210Z,99.73
2018-05-27T03:24:19.002Z,99.88
2018-05-27T03:26:44.794Z,99.62
2018-05-27T03:29:10.590Z,99.61
2018-05-27T03:31:36.430Z,99.92
2018-05-27T03:34:02.315Z,100.00
2018-05-27T03:36:28.126Z,100.00
2018-05-27T03:38:53.940Z,100.00
2018-05-27T03:41:19.757Z,100.00
2018-05-27T03:43:45.595Z,100.00
2018-05-27T03:46:11.406Z,99.76
2018-05-27T03:48:37.231Z,100.00
2018-05-27T03:51:03.012Z,100.00
2018-05-27T03:53:28.829Z,100.00
2018-05-27T03:55:54.634Z,100.00
2018-05-27T03:58:20.425Z,100.00
2018-05-27T04:00:46.226Z,100.00
2018-05-27T04:03:12.055Z,100.00
2018-05-27T04:05:50.269Z,100.00
2018-05-27T04:08:28.562Z,100.00
2018-05-27T04:10:54.373Z,100.00
2018-05-27T04:13:20.165Z,100.00
2018-05-27T04:15:45.992Z,100.00
2018-05-27T04:18:12.018Z,100.00
2018-05-27T04:20:37.801Z,100.00
2018-05-27T04:23:03.617Z,100.00
2018-05-27T04:25:29.698Z,100.00
2018-05-27T04:27:55.543Z,100.00
2018-05-27T04:30:22.083Z,100.00
2018-05-27T04:32:47.877Z,100.00
2018-05-27T04:35:13.701Z,100.00
2018-05-27T04:37:39.488Z,100.00
2018-05-27T04:40:05.274Z,100.00
2018-05-27T04:42:31.090Z,100.00
2018-05-27T04:44:56.914Z,100.00
2018-05-27T04:47:22.713Z,99.98
2018-05-27T04:49:48.545Z,99.55
2018-05-27T04:52:14.492Z,99.17
2018-05-27T04:54:40.284Z,98.38
2018-05-27T04:57:06.117Z,98.29
2018-05-27T04:59:31.931Z,98.28
2018-05-27T05:01:57.799Z,97.99
2018-05-27T05:04:23.600Z,98.32
2018-05-27T05:06:49.386Z,97.92
2018-05-27T05:09:15.187Z,97.66
2018-05-27T05:11:40.960Z,97.74
2018-05-27T05:14:06.757Z,97.84
2018-05-27T05:16:32.657Z,97.86
2018-05-27T05:18:58.460Z,97.31
2018-05-27T05:21:24.240Z,97.18
2018-05-27T05:23:50.041Z,97.19
2018-05-27T05:26:15.850Z,97.37
2018-05-27T05:28:41.949Z,96.95
2018-05-27T05:31:07.743Z,96.67
2018-05-27T05:33:33.545Z,96.42
2018-05-27T05:35:59.360Z,96.45
2018-05-27T05:38:25.181Z,96.50
2018-05-27T05:40:51.015Z,95.84
2018-05-27T05:43:16.814Z,95.56
2018-05-27T05:45:42.633Z,95.17
2018-05-27T05:48:08.452Z,95.47
2018-05-27T05:50:34.269Z,95.66
2018-05-27T05:53:00.086Z,95.62
2018-05-27T05:55:25.901Z,95.15
2018-05-27T05:57:51.681Z,94.71
2018-05-27T06:00:17.478Z,94.93
2018-05-27T06:02:43.285Z,94.39
2018-05-27T06:05:09.080Z,94.16
2018-05-27T06:07:34.869Z,94.59
2018-05-27T06:10:03.957Z,94.13
2018-05-27T06:12:29.824Z,93.69
2018-05-27T06:14:55.773Z,93.46
2018-05-27T06:17:21.625Z,93.36
2018-05-27T06:19:47.468Z,93.70
2018-05-27T06:22:13.570Z,93.28
2018-05-27T06:24:39.378Z,93.04
2018-05-27T06:27:05.821Z,92.70
2018-05-27T06:29:31.627Z,93.00
2018-05-27T06:31:57.726Z,92.65
2018-05-27T06:34:23.531Z,92.58
2018-05-27T06:36:49.378Z,92.10
2018-05-27T06:39:15.207Z,91.66
2018-05-27T06:41:40.987Z,91.52
2018-05-27T06:44:06.785Z,90.75
2018-05-27T06:46:32.612Z,89.70
2018-05-27T06:48:58.417Z,89.06
2018-05-27T06:51:24.277Z,88.79
2018-05-27T06:53:50.113Z,88.68
2018-05-27T06:56:16.047Z,87.69
2018-05-27T06:58:41.855Z,87.21
2018-05-27T07:01:08.425Z,87.37
2018-05-27T07:03:34.231Z,87.33
2018-05-27T07:06:00.190Z,87.90
2018-05-27T07:08:26.042Z,87.77
2018-05-27T07:10:51.842Z,87.76
2018-05-27T07:13:17.710Z,87.50
2018-05-27T07:15:43.495Z,87.49
2018-05-27T07:18:09.853Z,87.48
2018-05-27T07:20:35.932Z,87.19
2018-05-27T07:23:02.191Z,86.58
2018-05-27T07:25:28.023Z,87.02
2018-05-27T07:27:54.073Z,87.58
2018-05-27T07:30:19.855Z,87.75
2018-05-27T07:32:46.181Z,87.49
2018-05-27T07:35:11.980Z,87.41
2018-05-27T07:37:37.806Z,87.03
2018-05-27T07:40:04.568Z,87.55
2018-05-27T07:42:30.439Z,88.02
2018-05-27T07:44:56.238Z,88.45
2018-05-27T07:47:22.087Z,88.54
2018-05-27T07:49:47.972Z,88.57
2018-05-27T07:52:14.198Z,89.12
2018-05-27T07:54:40.020Z,88.90
2018-05-27T07:57:06.081Z,88.56
2018-05-27T07:59:32.244Z,88.72
2018-05-27T08:01:58.474Z,88.25
2018-05-27T08:04:24.274Z,88.24
2018-05-27T08:06:50.796Z,87.09
2018-05-27T08:09:16.577Z,87.07
2018-05-27T08:11:42.536Z,86.93
2018-05-27T08:14:08.490Z,87.25
2018-05-27T08:16:34.305Z,87.02
2018-05-27T08:19:00.226Z,86.37
2018-05-27T08:21:26.025Z,86.34
2018-05-27T08:23:51.816Z,86.40
2018-05-27T08:26:17.618Z,85.96
2018-05-27T08:28:43.450Z,86.14
2018-05-27T08:31:09.239Z,85.99
2018-05-27T08:33:35.185Z,85.48
2018-05-27T08:36:00.978Z,85.42
2018-05-27T08:38:26.788Z,85.10
2018-05-27T08:40:52.584Z,84.78
2018-05-27T08:43:18.469Z,85.30
2018-05-27T08:45:44.270Z,84.05
2018-05-27T08:48:10.070Z,83.70
2018-05-27T08:50:35.901Z,82.07
2018-05-27T08:53:01.703Z,80.45
2018-05-27T08:55:27.514Z,80.33
2018-05-27T08:57:53.338Z,79.86
2018-05-27T09:00:19.220Z,80.09
2018-05-27T09:02:45.036Z,80.28
2018-05-27T09:05:10.870Z,80.62
2018-05-27T09:07:36.669Z,80.97
2018-05-27T09:10:02.474Z,80.76
2018-05-27T09:12:28.277Z,79.79
2018-05-27T09:14:54.071Z,78.89
2018-05-27T09:17:19.865Z,78.47
2018-05-27T09:19:45.654Z,76.75
2018-05-27T09:22:11.446Z,76.60
2018-05-27T09:24:37.387Z,76.39
2018-05-27T09:27:03.863Z,77.47
2018-05-27T09:29:29.678Z,77.62
2018-05-27T09:31:55.465Z,76.27
2018-05-27T09:34:21.300Z,75.23
2018-05-27T09:36:47.119Z,75.55
2018-05-27T09:39:12.926Z,75.30
2018-05-27T09:41:39.091Z,74.55
2018-05-27T09:44:04.926Z,73.80
2018-05-27T09:46:30.735Z,73.93
2018-05-27T09:48:57.422Z,74.03
2018-05-27T09:51:23.265Z,73.67
2018-05-27T09:53:49.074Z,72.81
2018-05-27T09:56:14.874Z,72.21
2018-05-27T09:58:40.679Z,71.72
2018-05-27T10:01:06.485Z,71.15
2018-05-27T10:03:32.271Z,70.45
2018-05-27T10:05:58.076Z,68.33
2018-05-27T10:08:23.905Z,69.23
2018-05-27T10:10:49.687Z,68.39
2018-05-27T10:13:15.479Z,69.36
2018-05-27T10:15:41.304Z,69.79
2018-05-27T10:18:07.153Z,68.68
2018-05-27T10:20:32.957Z,66.23
2018-05-27T10:22:58.779Z,65.66
2018-05-27T10:25:24.573Z,66.50
2018-05-27T10:27:50.425Z,66.13
2018-05-27T10:30:16.246Z,65.51
2018-05-27T10:32:42.048Z,65.79
2018-05-27T10:35:07.841Z,65.67
2018-05-27T10:37:33.728Z,65.12
2018-05-27T10:39:59.560Z,65.15
2018-05-27T10:42:25.347Z,63.93
2018-05-27T10:44:51.274Z,63.89
2018-05-27T10:47:17.098Z,63.78
2018-05-27T10:49:42.877Z,62.03
2018-05-27T10:52:08.695Z,61.53
2018-05-27T10:54:34.486Z,60.62
2018-05-27T10:57:00.287Z,59.96
2018-05-27T10:59:26.089Z,59.66
2018-05-27T11:01:51.891Z,60.13
2018-05-27T11:04:17.717Z,59.03
2018-05-27T11:06:43.881Z,58.64
2018-05-27T11:09:09.721Z,58.78
2018-05-27T11:11:35.513Z,58.58
2018-05-27T11:14:01.530Z,58.21
2018-05-27T11:16:27.372Z,58.94
2018-05-27T11:18:53.404Z,58.92
2018-05-27T11:21:19.150Z,59.52
2018-05-27T11:23:45.471Z,59.19
2018-05-27T11:26:11.405Z,60.15
2018-05-27T11:28:37.225Z,59.04
2018-05-27T11:31:03.009Z,58.56
2018-05-27T11:33:29.066Z,59.47
2018-05-27T11:35:54.863Z,58.95
2018-05-27T11:38:20.641Z,60.31
2018-05-27T11:40:47.482Z,60.80
2018-05-27T11:43:13.426Z,61.58
2018-05-27T11:45:39.665Z,60.96
2018-05-27T11:48:05.479Z,60.76
2018-05-27T11:50:31.494Z,60.23
2018-05-27T11:52:57.298Z,60.86
2018-05-27T11:55:23.109Z,60.57
2018-05-27T11:57:48.904Z,60.41
2018-05-27T12:00:14.689Z,60.36
2018-05-27T12:02:40.544Z,60.80
2018-05-27T12:05:06.337Z,60.24
2018-05-27T12:07:32.462Z,60.87
2018-05-27T12:09:58.278Z,60.75
2018-05-27T12:12:24.125Z,59.37
2018-05-27T12:14:49.938Z,58.49
2018-05-27T12:17:15.758Z,58.97
2018-05-27T12:19:41.549Z,58.27
2018-05-27T12:22:07.391Z,58.18
2018-05-27T12:24:33.194Z,57.15
2018-05-27T12:26:59.018Z,57.46
2018-05-27T12:29:24.944Z,56.29
2018-05-27T12:31:50.725Z,55.09
2018-05-27T12:34:16.506Z,54.92
2018-05-27T12:36:42.306Z,55.26
2018-05-27T12:39:08.090Z,55.97
2018-05-27T12:41:33.873Z,55.44
2018-05-27T12:43:59.677Z,53.75
2018-05-27T12:46:25.485Z,52.83
2018-05-27T12:48:51.300Z,52.85
2018-05-27T12:51:17.101Z,53.24
2018-05-27T12:53:42.904Z,52.38
2018-05-27T12:56:08.950Z,52.92
2018-05-27T12:58:34.750Z,52.79
2018-05-27T13:01:00.585Z,52.27
2018-05-27T13:03:26.401Z,52.38
2018-05-27T13:05:52.184Z,52.43
2018-05-27T13:08:17.985Z,50.63
2018-05-27T13:10:43.871Z,49.80
2018-05-27T13:13:09.654Z,50.36
2018-05-27T13:15:35.453Z,51.09
2018-05-27T13:18:01.235Z,51.29
2018-05-27T13:20:27.047Z,50.83
2018-05-27T13:22:52.847Z,50.17
2018-05-27T13:25:18.624Z,49.96
2018-05-27T13:27:44.449Z,49.67
2018-05-27T13:30:10.237Z,51.21
2018-05-27T13:32:36.041Z,50.86
2018-05-27T13:35:01.877Z,50.14
2018-05-27T13:37:27.685Z,51.19
2018-05-27T13:39:53.474Z,49.60
2018-05-27T13:42:19.256Z,49.49
2018-05-27T13:44:45.301Z,49.01
2018-05-27T13:47:11.109Z,49.81
2018-05-27T13:49:36.875Z,50.10
2018-05-27T13:52:02.673Z,50.43
2018-05-27T13:54:28.441Z,48.95
2018-05-27T13:56:54.249Z,50.01
2018-05-27T13:59:20.029Z,50.19
2018-05-27T14:01:45.812Z,49.64
2018-05-27T14:04:11.613Z,50.25
2018-05-27T14:06:37.389Z,49.29
2018-05-27T14:09:03.216Z,48.86
2018-05-27T14:11:28.996Z,49.95
2018-05-27T14:13:54.768Z,50.39
2018-05-27T14:16:20.569Z,51.20
2018-05-27T14:18:46.357Z,51.56
2018-05-27T14:21:12.141Z,50.93
2018-05-27T14:23:37.949Z,50.56
2018-05-27T14:26:03.731Z,50.72
2018-05-27T14:28:29.518Z,51.81
2018-05-27T14:30:55.336Z,51.58
2018-05-27T14:33:21.206Z,51.53
2018-05-27T14:35:46.945Z,51.52
2018-05-27T14:38:12.737Z,52.75
2018-05-27T14:40:38.513Z,52.96
2018-05-27T14:43:04.321Z,54.30
2018-05-27T14:45:30.109Z,53.34
2018-05-27T14:47:55.906Z,53.61
2018-05-27T14:50:21.688Z,52.83
2018-05-27T14:52:47.468Z,54.15
2018-05-27T14:55:13.261Z,55.33
2018-05-27T14:57:39.058Z,55.75
2018-05-27T15:00:04.853Z,56.16
2018-05-27T15:02:30.741Z,56.58
2018-05-27T15:04:56.527Z,56.91
2018-05-27T15:07:22.305Z,56.28
2018-05-27T15:09:48.370Z,57.24
2018-05-27T15:12:14.203Z,56.97
2018-05-27T15:14:39.968Z,58.14
2018-05-27T15:17:05.781Z,58.50
2018-05-27T15:19:31.573Z,59.12
2018-05-27T15:21:57.362Z,59.86
2018-05-27T15:24:23.177Z,59.83
2018-05-27T15:26:48.966Z,59.25
2018-05-27T15:29:14.749Z,60.00
2018-05-27T15:31:40.557Z,59.64
2018-05-27T15:34:06.359Z,59.74
2018-05-27T15:36:32.245Z,59.76
2018-05-27T15:38:58.041Z,60.20
2018-05-27T15:41:23.841Z,60.27
2018-05-27T15:43:49.613Z,60.17
2018-05-27T15:46:15.403Z,60.79
2018-05-27T15:48:41.174Z,60.86
2018-05-27T15:51:06.963Z,61.27
2018-05-27T15:53:32.753Z,60.79
2018-05-27T15:55:58.534Z,60.12
2018-05-27T15:58:24.362Z,59.71
2018-05-27T16:00:50.133Z,59.06
2018-05-27T16:03:15.934Z,60.03
2018-05-27T16:05:41.747Z,60.41
2018-05-27T16:08:07.545Z,60.46
2018-05-27T16:10:33.333Z,60.48
2018-05-27T16:12:59.128Z,61.50
2018-05-27T16:15:24.931Z,61.75
2018-05-27T16:17:50.720Z,62.24
2018-05-27T16:20:16.528Z,62.31
2018-05-27T16:22:42.417Z,61.36
2018-05-27T16:25:08.193Z,61.22
2018-05-27T16:27:33.992Z,61.74
2018-05-27T16:29:59.782Z,62.13
2018-05-27T16:32:25.576Z,62.01
2018-05-27T16:34:51.366Z,62.46
2018-05-27T16:37:17.186Z,63.15
2018-05-27T16:39:42.969Z,63.18
2018-05-27T16:42:08.759Z,64.26
2018-05-27T16:44:34.570Z,64.58
2018-05-27T16:47:00.353Z,64.45
2018-05-27T16:49:26.128Z,64.23
2018-05-27T16:51:51.999Z,65.16
2018-05-27T16:54:17.802Z,65.16
2018-05-27T16:56:43.596Z,65.09
2018-05-27T16:59:09.378Z,65.07
2018-05-27T17:01:35.165Z,65.66
2018-05-27T17:04:00.949Z,65.19
2018-05-27T17:06:26.757Z,65.29
2018-05-27T17:08:52.549Z,65.36
2018-05-27T17:11:18.463Z,65.85
2018-05-27T17:13:44.279Z,66.16
2018-05-27T17:16:10.117Z,66.55
2018-05-27T17:18:37.286Z,66.93
2018-05-27T17:21:03.598Z,67.01
2018-05-27T17:23:29.422Z,67.13
2018-05-27T17:25:55.498Z,68.01
2018-05-27T17:28:21.350Z,68.12
2018-05-27T17:30:47.133Z,68.00
2018-05-27T17:33:13.136Z,67.95
2018-05-27T17:35:39.088Z,68.11
2018-05-27T17:38:05.160Z,68.66
2018-05-27T17:40:31.022Z,68.30
2018-05-27T17:42:56.812Z,67.55
2018-05-27T17:45:22.628Z,67.87
2018-05-27T17:47:48.740Z,67.57
2018-05-27T17:50:14.561Z,68.16
2018-05-27T17:52:40.374Z,68.34
2018-05-27T17:55:06.157Z,68.70
2018-05-27T17:57:31.952Z,69.23
2018-05-27T17:59:57.771Z,69.77
2018-05-27T18:02:23.561Z,70.28
2018-05-27T18:04:49.345Z,70.95
2018-05-27T18:07:15.129Z,71.23
2018-05-27T18:09:40.929Z,71.22
2018-05-27T18:12:06.872Z,71.67
2018-05-27T18:14:32.653Z,71.97
2018-05-27T18:16:58.469Z,72.08
2018-05-27T18:19:24.250Z,73.16
2018-05-27T18:21:50.024Z,74.03
2018-05-27T18:24:16.142Z,74.27
2018-05-27T18:26:41.946Z,74.82
2018-05-27T18:29:07.953Z,75.20
2018-05-27T18:31:33.773Z,75.73
2018-05-27T18:33:59.566Z,75.83
2018-05-27T18:36:25.364Z,75.86
2018-05-27T18:38:51.306Z,76.08
2018-05-27T18:41:17.033Z,76.30
2018-05-27T18:43:43.110Z,76.81
2018-05-27T18:46:08.964Z,76.61
2018-05-27T18:48:34.750Z,77.02
2018-05-27T18:51:00.546Z,77.51
2018-05-27T18:53:26.405Z,78.30
2018-05-27T18:55:52.167Z,78.57
2018-05-27T18:58:17.940Z,79.01
2018-05-27T19:00:43.864Z,78.85
2018-05-27T19:03:09.679Z,78.57
2018-05-27T19:05:35.468Z,78.94
2018-05-27T19:08:01.277Z,79.27
2018-05-27T19:10:27.071Z,80.20
2018-05-27T19:12:53.074Z,80.72
2018-05-27T19:15:18.884Z,80.57
2018-05-27T19:17:44.906Z,80.71
2018-05-27T19:20:10.701Z,81.33
2018-05-27T19:22:36.523Z,81.63
2018-05-27T19:25:02.372Z,82.00
2018-05-27T19:27:28.166Z,82.70
2018-05-27T19:29:54.010Z,82.48
2018-05-27T19:32:19.810Z,83.21
2018-05-27T19:34:45.593Z,83.35
2018-05-27T19:37:11.388Z,83.07
2018-05-27T19:39:37.596Z,83.07
2018-05-27T19:42:03.491Z,83.79
2018-05-27T19:44:29.290Z,83.92
2018-05-27T19:46:55.095Z,84.08
2018-05-27T19:49:22.060Z,83.83
2018-05-27T19:51:48.484Z,83.47
2018-05-27T19:54:14.273Z,84.12
2018-05-27T19:56:40.732Z,84.44
2018-05-27T19:59:06.532Z,84.57
2018-05-27T20:01:32.782Z,84.98
2018-05-27T20:03:58.556Z,84.99
2018-05-27T20:06:24.360Z,84.93
2018-05-27T20:08:50.138Z,84.68
2018-05-27T20:11:15.916Z,84.76
2018-05-27T20:13:42.424Z,84.69
2018-05-27T20:16:08.203Z,85.39
2018-05-27T20:18:34.795Z,85.39
2018-05-27T20:21:00.624Z,85.22
2018-05-27T20:23:26.609Z,85.49
2018-05-27T20:25:52.409Z,85.03
2018-05-27T20:28:18.586Z,84.80
2018-05-27T20:30:44.397Z,84.95
2018-05-27T20:33:10.257Z,85.55
2018-05-27T20:35:36.060Z,85.72
2018-05-27T20:38:01.860Z,85.63
2018-05-27T20:40:27.881Z,85.54
2018-05-27T20:42:53.673Z,85.94
2018-05-27T20:45:19.467Z,86.25
2018-05-27T20:47:45.258Z,86.50
2018-05-27T20:50:11.308Z,86.58
2018-05-27T20:52:37.104Z,86.60
2018-05-27T20:55:03.284Z,86.75
2018-05-27T20:57:29.085Z,87.08
2018-05-27T20:59:54.862Z,87.52
2018-05-27T21:02:20.670Z,87.67
2018-05-27T21:04:46.734Z,87.79
2018-05-27T21:07:12.661Z,87.97
2018-05-27T21:09:38.442Z,87.20
2018-05-27T21:12:04.326Z,87.45
2018-05-27T21:14:30.148Z,87.64
2018-05-27T21:16:56.339Z,87.01
2018-05-27T21:19:22.169Z,86.73
2018-05-27T21:21:47.999Z,86.32
2018-05-27T21:24:13.792Z,86.44
2018-05-27T21:26:39.676Z,86.39
2018-05-27T21:29:05.496Z,86.83
2018-05-27T21:31:31.317Z,87.43
2018-05-27T21:33:57.087Z,87.23
2018-05-27T21:36:22.896Z,87.07
2018-05-27T21:38:48.712Z,87.34
2018-05-27T21:41:14.501Z,87.88
2018-05-27T21:43:40.310Z,88.07
2018-05-27T21:46:06.284Z,87.94
2018-05-27T21:48:32.056Z,88.21
2018-05-27T21:50:57.848Z,89.06
2018-05-27T21:53:23.635Z,88.93
2018-05-27T21:55:49.710Z,88.74
2018-05-27T21:58:15.520Z,89.21
2018-05-27T22:00:41.317Z,89.19
2018-05-27T22:03:07.205Z,89.66
2018-05-27T22:05:33.001Z,90.12
2018-05-27T22:07:58.785Z,90.29
2018-05-27T22:10:24.585Z,90.13
2018-05-27T22:12:50.388Z,90.11
2018-05-27T22:15:16.201Z,89.81
2018-05-27T22:17:41.980Z,89.99
2018-05-27T22:20:07.761Z,89.82
2018-05-27T22:22:33.561Z,89.10
2018-05-27T22:24:59.343Z,89.39
2018-05-27T22:27:25.131Z,89.81
2018-05-27T22:29:50.924Z,89.18
2018-05-27T22:32:16.698Z,89.50
2018-05-27T22:34:42.536Z,89.82
2018-05-27T22:37:08.328Z,88.69
2018-05-27T22:39:34.111Z,89.08
2018-05-27T22:41:59.903Z,89.49
2018-05-27T22:44:25.714Z,89.05
2018-05-27T22:46:51.525Z,89.05
2018-05-27T22:49:17.323Z,88.34
2018-05-27T22:51:43.158Z,87.75
2018-05-27T22:54:08.936Z,87.87
2018-05-27T22:56:34.772Z,87.95
2018-05-27T22:59:00.562Z,88.28
2018-05-27T23:01:26.358Z,87.84
2018-05-27T23:03:52.153Z,87.83
2018-05-27T23:06:17.958Z,88.43
2018-05-27T23:08:43.744Z,88.12
2018-05-27T23:11:09.545Z,87.88
2018-05-27T23:13:35.331Z,87.99
2018-05-27T23:16:01.134Z,87.66
2018-05-27T23:18:26.916Z,87.42
2018-05-27T23:20:52.704Z,87.40
2018-05-27T23:23:18.615Z,87.97
2018-05-27T23:25:44.391Z,88.29
2018-05-27T23:28:10.191Z,88.09
2018-05-27T23:30:35.974Z,87.73
2018-05-27T23:33:01.771Z,87.63
2018-05-27T23:35:27.582Z,87.07
2018-05-27T23:37:53.368Z,87.17
2018-05-27T23:40:19.157Z,86.87
2018-05-27T23:42:45.097Z,87.07
2018-05-27T23:45:10.885Z,87.18
2018-05-27T23:47:36.789Z,86.73
2018-05-27T23:50:02.643Z,86.79
2018-05-27T23:52:28.429Z,86.70
2018-05-27T23:54:54.216Z,86.41
2018-05-27T23:57:20.028Z,86.25
2018-05-27T23:59:45.818Z,86.23
